createdAt,value
2017-09-13T00:00:01.355Z,93.01
2017-09-13T00:02:28.851Z,93.49
2017-09-13T00:04:56.354Z,93.60
2017-09-13T00:07:23.875Z,93.48
2017-09-13T00:09:51.387Z,93.76
2017-09-13T00:12:18.908Z,93.93
2017-09-13T00:14:46.448Z,94.10
2017-09-13T00:17:13.970Z,94.38
2017-09-13T00:19:41.465Z,94.31
2017-09-13T00:22:08.985Z,93.66
2017-09-13T00:24:36.499Z,94.75
2017-09-13T00:27:04.002Z,94.61
2017-09-13T00:29:31.513Z,94.66
2017-09-13T00:31:59.024Z,94.98
2017-09-13T00:34:26.528Z,95.00
2017-09-13T00:36:54.043Z,94.25
2017-09-13T00:39:21.548Z,94.31
2017-09-13T00:41:49.054Z,95.33
2017-09-13T00:44:16.556Z,95.37
2017-09-13T00:46:44.069Z,95.51
2017-09-13T00:49:11.586Z,95.89
2017-09-13T00:51:39.087Z,95.49
2017-09-13T00:54:06.605Z,95.67
2017-09-13T00:56:34.142Z,95.92
2017-09-13T00:59:01.700Z,95.97
2017-09-13T01:01:29.261Z,96.36
2017-09-13T01:03:56.775Z,96.29
2017-09-13T01:06:24.273Z,96.27
2017-09-13T01:08:51.834Z,96.65
2017-09-13T01:11:19.337Z,96.62
2017-09-13T01:13:46.847Z,96.00
2017-09-13T01:16:14.367Z,95.84
2017-09-13T01:18:41.876Z,94.75
2017-09-13T01:21:09.373Z,93.81
2017-09-13T01:23:36.875Z,94.30
2017-09-13T01:26:04.375Z,93.91
2017-09-13T01:28:31.887Z,93.84
2017-09-13T01:30:59.394Z,94.63
2017-09-13T01:33:26.909Z,94.79
2017-09-13T01:35:54.432Z,95.69
2017-09-13T01:38:21.945Z,95.59
2017-09-13T01:40:49.485Z,95.31
2017-09-13T01:43:16.992Z,95.97
2017-09-13T01:45:44.504Z,95.43
2017-09-13T01:48:12.028Z,95.56
2017-09-13T01:50:39.536Z,94.87
2017-09-13T01:53:07.035Z,94.84
2017-09-13T01:55:34.536Z,95.96
2017-09-13T01:58:02.236Z,95.82
2017-09-13T02:00:29.744Z,95.77
2017-09-13T02:02:57.253Z,95.22
2017-09-13T02:05:24.753Z,95.71
2017-09-13T02:07:52.285Z,96.13
2017-09-13T02:10:19.819Z,96.70
2017-09-13T02:12:47.330Z,95.87
2017-09-13T02:15:14.852Z,96.25
2017-09-13T02:17:43.105Z,96.56
2017-09-13T02:20:10.615Z,96.63
2017-09-13T02:22:38.118Z,96.19
2017-09-13T02:25:05.819Z,95.82
2017-09-13T02:27:33.322Z,95.41
2017-09-13T02:30:00.827Z,95.57
2017-09-13T02:32:28.353Z,95.69
2017-09-13T02:34:55.896Z,96.22
2017-09-13T02:37:23.402Z,96.77
2017-09-13T02:39:50.910Z,96.39
2017-09-13T02:42:18.431Z,96.94
2017-09-13T02:44:45.955Z,95.63
2017-09-13T02:47:13.461Z,95.72
2017-09-13T02:49:40.976Z,96.20
2017-09-13T02:52:08.496Z,96.40
2017-09-13T02:54:36.004Z,96.44
2017-09-13T02:57:03.509Z,96.30
2017-09-13T02:59:31.020Z,96.22
2017-09-13T03:01:58.519Z,96.56
2017-09-13T03:04:26.020Z,96.90
2017-09-13T03:06:53.516Z,95.93
2017-09-13T03:09:21.034Z,96.43
2017-09-13T03:11:48.534Z,95.81
2017-09-13T03:14:16.044Z,96.12
2017-09-13T03:16:43.566Z,96.27
2017-09-13T03:19:11.082Z,96.24
2017-09-13T03:21:38.601Z,96.85
2017-09-13T03:24:06.124Z,96.37
2017-09-13T03:26:33.640Z,96.50
2017-09-13T03:29:01.141Z,97.12
2017-09-13T03:31:28.854Z,96.94
2017-09-13T03:33:56.418Z,96.98
2017-09-13T03:36:24.087Z,96.60
2017-09-13T03:38:51.598Z,96.79
2017-09-13T03:41:19.107Z,96.76
2017-09-13T03:43:46.948Z,96.95
2017-09-13T03:46:14.499Z,97.03
2017-09-13T03:48:42.007Z,97.18
2017-09-13T03:51:09.527Z,97.34
2017-09-13T03:53:37.236Z,97.24
2017-09-13T03:56:04.761Z,97.46
2017-09-13T03:58:32.259Z,97.69
2017-09-13T04:01:00.773Z,97.85
2017-09-13T04:03:28.295Z,97.54
2017-09-13T04:05:55.795Z,97.23
2017-09-13T04:08:23.316Z,96.64
2017-09-13T04:10:50.828Z,96.76
2017-09-13T04:13:19.280Z,97.06
2017-09-13T04:15:46.783Z,97.29
2017-09-13T04:18:15.196Z,97.68
2017-09-13T04:20:42.721Z,97.59
2017-09-13T04:23:10.247Z,97.01
2017-09-13T04:25:37.766Z,96.21
2017-09-13T04:28:05.267Z,96.38
2017-09-13T04:30:32.783Z,96.62
2017-09-13T04:33:00.306Z,96.57
2017-09-13T04:35:27.840Z,96.76
2017-09-13T04:37:55.344Z,96.43
2017-09-13T04:40:22.856Z,96.48
2017-09-13T04:42:50.384Z,95.96
2017-09-13T04:45:17.888Z,95.75
2017-09-13T04:47:45.408Z,95.62
2017-09-13T04:50:12.905Z,94.95
2017-09-13T04:52:40.424Z,91.84
2017-09-13T04:55:07.940Z,91.53
2017-09-13T04:57:35.458Z,89.82
2017-09-13T05:00:02.974Z,85.17
2017-09-13T05:02:30.534Z,85.92
2017-09-13T05:04:58.070Z,84.09
2017-09-13T05:07:25.582Z,84.08
2017-09-13T05:09:53.087Z,82.64
2017-09-13T05:12:20.662Z,82.25
2017-09-13T05:14:48.182Z,80.97
2017-09-13T05:17:15.695Z,82.26
2017-09-13T05:19:43.222Z,79.92
2017-09-13T05:22:10.740Z,80.29
2017-09-13T05:24:38.245Z,78.69
2017-09-13T05:27:05.752Z,78.15
2017-09-13T05:29:33.266Z,78.09
2017-09-13T05:32:00.820Z,78.89
2017-09-13T05:34:28.599Z,75.31
2017-09-13T05:36:56.111Z,75.11
2017-09-13T05:39:23.627Z,72.08
2017-09-13T05:41:51.137Z,69.68
2017-09-13T05:44:18.708Z,70.65
2017-09-13T05:46:46.333Z,68.17
2017-09-13T05:49:13.867Z,66.57
2017-09-13T05:51:41.377Z,66.33
2017-09-13T05:54:08.885Z,66.44
2017-09-13T05:56:36.400Z,64.12
2017-09-13T05:59:03.968Z,66.52
2017-09-13T06:01:31.490Z,65.38
2017-09-13T06:03:59.007Z,63.20
2017-09-13T06:06:26.523Z,63.70
2017-09-13T06:08:54.046Z,61.96
2017-09-13T06:11:21.578Z,61.33
2017-09-13T06:13:49.102Z,61.26
2017-09-13T06:16:16.717Z,60.33
2017-09-13T06:18:44.223Z,60.83
2017-09-13T06:21:11.764Z,60.22
2017-09-13T06:23:39.339Z,59.54
2017-09-13T06:26:06.835Z,59.01
2017-09-13T06:28:34.346Z,58.63
2017-09-13T06:31:01.851Z,57.41
2017-09-13T06:33:29.365Z,58.25
2017-09-13T06:35:57.039Z,56.16
2017-09-13T06:38:24.556Z,57.08
2017-09-13T06:40:52.077Z,57.33
2017-09-13T06:43:19.601Z,57.64
2017-09-13T06:45:47.118Z,57.98
2017-09-13T06:48:14.748Z,56.68
2017-09-13T06:50:42.260Z,57.33
2017-09-13T06:53:09.792Z,57.14
2017-09-13T06:55:37.308Z,56.94
2017-09-13T06:58:04.927Z,55.67
2017-09-13T07:00:32.444Z,55.54
2017-09-13T07:02:59.951Z,55.45
2017-09-13T07:05:27.487Z,55.70
2017-09-13T07:07:54.999Z,55.25
2017-09-13T07:10:22.524Z,55.47
2017-09-13T07:12:50.031Z,56.33
2017-09-13T07:15:17.579Z,55.07
2017-09-13T07:17:45.092Z,56.06
2017-09-13T07:20:12.608Z,55.31
2017-09-13T07:22:40.142Z,55.13
2017-09-13T07:25:07.664Z,54.68
2017-09-13T07:27:35.162Z,56.26
2017-09-13T07:30:02.671Z,55.38
2017-09-13T07:32:30.171Z,56.39
2017-09-13T07:34:57.671Z,55.86
2017-09-13T07:37:25.314Z,57.26
2017-09-13T07:39:52.829Z,56.14
2017-09-13T07:42:20.390Z,56.38
2017-09-13T07:44:47.919Z,55.61
2017-09-13T07:47:15.435Z,55.99
2017-09-13T07:49:42.967Z,56.99
2017-09-13T07:52:10.472Z,55.79
2017-09-13T07:54:37.988Z,56.09
2017-09-13T07:57:05.507Z,55.37
2017-09-13T07:59:33.040Z,56.39
2017-09-13T08:02:00.543Z,56.58
2017-09-13T08:04:28.063Z,57.52
2017-09-13T08:06:55.592Z,57.36
2017-09-13T08:09:23.264Z,59.79
2017-09-13T08:11:50.779Z,58.25
2017-09-13T08:14:18.299Z,57.60
2017-09-13T08:16:45.824Z,58.36
2017-09-13T08:19:13.325Z,58.16
2017-09-13T08:21:40.834Z,58.20
2017-09-13T08:24:08.356Z,57.29
2017-09-13T08:26:35.870Z,57.18
2017-09-13T08:29:03.391Z,55.25
2017-09-13T08:31:30.900Z,55.01
2017-09-13T08:33:58.428Z,55.69
2017-09-13T08:36:25.991Z,54.80
2017-09-13T08:38:53.499Z,54.31
2017-09-13T08:41:21.012Z,54.22
2017-09-13T08:43:48.551Z,53.23
2017-09-13T08:46:16.056Z,51.68
2017-09-13T08:48:43.567Z,51.94
2017-09-13T08:51:11.075Z,52.27
2017-09-13T08:53:38.586Z,53.69
2017-09-13T08:56:06.098Z,52.98
2017-09-13T08:58:33.664Z,54.12
2017-09-13T09:01:01.175Z,54.12
2017-09-13T09:03:28.739Z,53.65
2017-09-13T09:05:56.300Z,54.38
2017-09-13T09:08:23.820Z,55.29
2017-09-13T09:10:51.331Z,56.19
2017-09-13T09:13:18.855Z,55.62
2017-09-13T09:15:46.378Z,56.61
2017-09-13T09:18:13.866Z,56.54
2017-09-13T09:20:41.380Z,56.56
2017-09-13T09:23:08.888Z,55.29
2017-09-13T09:25:36.403Z,56.73
2017-09-13T09:28:03.942Z,55.87
2017-09-13T09:30:31.441Z,55.85
2017-09-13T09:32:58.961Z,56.62
2017-09-13T09:35:26.464Z,57.65
2017-09-13T09:37:54.161Z,58.12
2017-09-13T09:40:21.716Z,58.69
2017-09-13T09:42:49.234Z,60.37
2017-09-13T09:45:16.751Z,61.22
2017-09-13T09:47:44.279Z,60.73
2017-09-13T09:50:11.779Z,61.37
2017-09-13T09:52:39.291Z,61.95
2017-09-13T09:55:06.789Z,62.71
2017-09-13T09:57:34.297Z,62.96
2017-09-13T10:00:01.816Z,64.25
2017-09-13T10:02:30.354Z,63.26
2017-09-13T10:04:57.854Z,63.04
2017-09-13T10:07:25.375Z,62.19
2017-09-13T10:09:52.898Z,62.32
2017-09-13T10:12:20.415Z,62.88
2017-09-13T10:14:47.924Z,63.77
2017-09-13T10:17:15.435Z,64.04
2017-09-13T10:19:42.958Z,64.01
2017-09-13T10:22:10.531Z,61.57
2017-09-13T10:24:38.035Z,59.67
2017-09-13T10:27:05.541Z,59.22
2017-09-13T10:29:33.053Z,60.59
2017-09-13T10:32:00.563Z,61.36
2017-09-13T10:34:28.070Z,62.08
2017-09-13T10:36:55.577Z,59.85
2017-09-13T10:39:23.088Z,58.45
2017-09-13T10:41:50.595Z,59.86
2017-09-13T10:44:18.090Z,60.06
2017-09-13T10:46:45.598Z,61.57
2017-09-13T10:49:13.103Z,62.62
2017-09-13T10:51:40.611Z,63.62
2017-09-13T10:54:08.120Z,63.07
2017-09-13T10:56:35.640Z,64.19
2017-09-13T10:59:03.152Z,64.56
2017-09-13T11:01:30.665Z,63.05
2017-09-13T11:03:58.174Z,63.06
2017-09-13T11:06:25.688Z,63.64
2017-09-13T11:08:53.197Z,63.44
2017-09-13T11:11:20.699Z,64.30
2017-09-13T11:13:48.214Z,61.90
2017-09-13T11:16:15.720Z,62.80
2017-09-13T11:18:43.258Z,62.04
2017-09-13T11:21:10.784Z,58.65
2017-09-13T11:23:38.340Z,57.00
2017-09-13T11:26:05.859Z,53.56
2017-09-13T11:28:33.396Z,49.69
2017-09-13T11:31:00.896Z,49.26
2017-09-13T11:33:28.454Z,45.95
2017-09-13T11:35:55.985Z,47.05
2017-09-13T11:38:23.612Z,47.49
2017-09-13T11:40:51.124Z,49.09
2017-09-13T11:43:19.552Z,51.81
2017-09-13T11:45:47.070Z,53.44
2017-09-13T11:48:14.600Z,54.35
2017-09-13T11:50:42.112Z,55.72
2017-09-13T11:53:09.623Z,57.73
2017-09-13T11:55:37.139Z,58.99
2017-09-13T11:58:04.645Z,59.42
2017-09-13T12:00:32.152Z,60.32
2017-09-13T12:02:59.760Z,60.51
2017-09-13T12:05:27.265Z,61.96
2017-09-13T12:07:54.778Z,61.86
2017-09-13T12:10:22.328Z,61.96
2017-09-13T12:12:49.840Z,61.82
2017-09-13T12:15:17.379Z,62.31
2017-09-13T12:17:44.919Z,63.20
2017-09-13T12:20:12.449Z,62.75
2017-09-13T12:22:39.967Z,63.20
2017-09-13T12:25:07.479Z,63.54
2017-09-13T12:27:34.987Z,63.19
2017-09-13T12:30:02.500Z,63.80
2017-09-13T12:32:30.111Z,64.48
2017-09-13T12:34:57.669Z,63.91
2017-09-13T12:37:25.209Z,64.12
2017-09-13T12:39:52.722Z,63.95
2017-09-13T12:42:20.247Z,64.58
2017-09-13T12:44:47.752Z,64.21
2017-09-13T12:47:15.279Z,64.16
2017-09-13T12:49:42.806Z,64.23
2017-09-13T12:52:10.335Z,66.13
2017-09-13T12:54:37.862Z,65.36
2017-09-13T12:57:05.381Z,65.60
2017-09-13T12:59:32.896Z,65.94
2017-09-13T13:02:00.427Z,65.25
2017-09-13T13:04:27.935Z,65.28
2017-09-13T13:06:55.468Z,64.55
2017-09-13T13:09:22.992Z,63.92
2017-09-13T13:11:50.495Z,64.81
2017-09-13T13:14:18.024Z,64.70
2017-09-13T13:16:45.532Z,63.17
2017-09-13T13:19:13.071Z,63.26
2017-09-13T13:21:40.579Z,63.59
2017-09-13T13:24:08.098Z,63.32
2017-09-13T13:26:35.618Z,62.98
2017-09-13T13:29:03.131Z,63.11
2017-09-13T13:31:30.675Z,63.63
2017-09-13T13:33:58.183Z,64.39
2017-09-13T13:36:25.685Z,63.99
2017-09-13T13:38:53.187Z,63.70
2017-09-13T13:41:20.720Z,62.55
2017-09-13T13:43:48.223Z,62.95
2017-09-13T13:46:15.751Z,63.93
2017-09-13T13:48:43.276Z,63.51
2017-09-13T13:51:10.790Z,64.18
2017-09-13T13:53:38.300Z,63.88
2017-09-13T13:56:05.803Z,65.04
2017-09-13T13:58:33.298Z,65.77
2017-09-13T14:01:00.799Z,65.60
2017-09-13T14:03:28.324Z,66.43
2017-09-13T14:05:55.825Z,66.30
2017-09-13T14:08:23.334Z,66.93
2017-09-13T14:10:50.851Z,66.46
2017-09-13T14:13:18.398Z,66.61
2017-09-13T14:15:45.919Z,67.15
2017-09-13T14:18:13.422Z,67.17
2017-09-13T14:20:40.915Z,66.48
2017-09-13T14:25:35.261Z,67.54
2017-09-13T14:28:02.802Z,66.79
2017-09-13T14:30:30.330Z,67.45
2017-09-13T14:32:57.851Z,67.17
2017-09-13T14:35:25.354Z,67.01
2017-09-13T14:37:52.884Z,66.39
2017-09-13T14:40:20.409Z,67.07
2017-09-13T14:42:47.927Z,67.07
2017-09-13T14:45:15.430Z,67.29
2017-09-13T14:47:42.947Z,68.62
2017-09-13T14:50:10.478Z,68.04
2017-09-13T14:52:38.047Z,68.73
2017-09-13T14:55:05.554Z,69.07
2017-09-13T14:57:33.218Z,69.46
2017-09-13T15:00:00.743Z,70.22
2017-09-13T15:02:28.381Z,71.06
2017-09-13T15:04:55.916Z,72.30
2017-09-13T15:07:23.443Z,71.97
2017-09-13T15:09:50.971Z,74.10
2017-09-13T15:12:18.486Z,74.40
2017-09-13T15:14:46.010Z,74.46
2017-09-13T15:17:13.533Z,76.18
2017-09-13T15:19:41.038Z,76.14
2017-09-13T15:22:08.539Z,77.33
2017-09-13T15:24:36.058Z,78.51
2017-09-13T15:27:03.614Z,79.15
2017-09-13T15:29:31.127Z,78.90
2017-09-13T15:31:58.662Z,81.60
2017-09-13T15:34:26.167Z,80.53
2017-09-13T15:36:53.695Z,81.49
2017-09-13T15:39:21.209Z,81.89
2017-09-13T15:41:49.067Z,82.15
2017-09-13T15:44:16.600Z,81.49
2017-09-13T15:46:44.136Z,81.40
2017-09-13T15:49:11.656Z,83.35
2017-09-13T15:51:39.201Z,83.09
2017-09-13T15:54:06.714Z,81.40
2017-09-13T15:56:34.319Z,81.70
2017-09-13T15:59:01.828Z,81.84
2017-09-13T16:01:29.333Z,82.37
2017-09-13T16:03:56.859Z,81.95
2017-09-13T16:06:24.385Z,81.46
2017-09-13T16:08:51.910Z,81.52
2017-09-13T16:11:19.434Z,81.10
2017-09-13T16:13:46.973Z,80.60
2017-09-13T16:16:14.516Z,80.92
2017-09-13T16:18:42.032Z,79.44
2017-09-13T16:21:09.659Z,80.83
2017-09-13T16:23:37.176Z,80.99
2017-09-13T16:26:04.699Z,80.27
2017-09-13T16:28:32.255Z,80.62
2017-09-13T16:30:59.818Z,82.12
2017-09-13T16:33:27.353Z,81.02
2017-09-13T16:35:55.106Z,80.88
2017-09-13T16:38:22.645Z,81.84
2017-09-13T16:40:50.167Z,80.63
2017-09-13T16:43:17.707Z,82.08
2017-09-13T16:45:45.254Z,82.57
2017-09-13T16:48:12.848Z,81.82
2017-09-13T16:50:40.406Z,82.01
2017-09-13T16:53:07.978Z,82.26
2017-09-13T16:55:35.479Z,83.52
2017-09-13T16:58:03.029Z,82.06
2017-09-13T17:00:30.543Z,83.56
2017-09-13T17:02:58.075Z,81.81
2017-09-13T17:05:25.591Z,81.84
2017-09-13T17:07:53.103Z,81.43
2017-09-13T17:10:20.624Z,82.90
2017-09-13T17:12:48.130Z,82.57
2017-09-13T17:15:15.640Z,82.07
2017-09-13T17:17:43.139Z,82.52
2017-09-13T17:20:10.675Z,82.28
2017-09-13T17:22:38.199Z,82.38
2017-09-13T17:25:05.782Z,82.95
2017-09-13T17:27:33.327Z,83.08
2017-09-13T17:30:00.860Z,84.17
2017-09-13T17:32:28.494Z,84.35
2017-09-13T17:34:56.057Z,84.26
2017-09-13T17:37:23.622Z,84.88
2017-09-13T17:39:51.140Z,83.91
2017-09-13T17:42:18.649Z,85.38
2017-09-13T17:44:46.153Z,85.51
2017-09-13T17:47:13.767Z,85.40
2017-09-13T17:49:41.272Z,86.10
2017-09-13T17:52:08.843Z,85.82
2017-09-13T17:54:36.355Z,86.04
2017-09-13T17:57:03.887Z,85.67
2017-09-13T17:59:31.396Z,85.27
2017-09-13T18:01:58.904Z,84.95
2017-09-13T18:04:26.420Z,84.75
2017-09-13T18:06:53.963Z,84.19
2017-09-13T18:09:22.435Z,84.24
2017-09-13T18:11:49.956Z,83.60
2017-09-13T18:14:17.600Z,82.17
2017-09-13T18:16:45.151Z,81.51
2017-09-13T18:19:12.691Z,81.97
2017-09-13T18:21:40.211Z,80.69
2017-09-13T18:24:07.733Z,80.13
2017-09-13T18:26:35.240Z,79.51
2017-09-13T18:29:02.886Z,79.17
2017-09-13T18:31:30.399Z,77.89
2017-09-13T18:33:57.908Z,78.14
2017-09-13T18:36:25.461Z,78.88
2017-09-13T18:38:52.994Z,77.38
2017-09-13T18:41:20.701Z,77.14
2017-09-13T18:43:48.231Z,77.11
2017-09-13T18:46:15.754Z,76.99
2017-09-13T18:48:45.489Z,77.17
2017-09-13T18:51:13.010Z,76.66
2017-09-13T18:53:40.592Z,76.50
2017-09-13T18:56:08.194Z,75.48
2017-09-13T18:58:35.776Z,75.11
2017-09-13T19:01:03.368Z,75.70
2017-09-13T19:03:30.895Z,74.77
2017-09-13T19:05:58.413Z,74.67
2017-09-13T19:08:25.970Z,74.08
2017-09-13T19:10:53.487Z,73.89
2017-09-13T19:13:21.149Z,73.38
2017-09-13T19:15:48.795Z,73.50
2017-09-13T19:18:16.341Z,73.17
2017-09-13T19:20:43.911Z,72.39
2017-09-13T19:23:11.482Z,70.94
2017-09-13T19:25:39.044Z,72.73
2017-09-13T19:28:06.630Z,72.30
2017-09-13T19:30:34.220Z,70.98
2017-09-13T19:33:01.839Z,71.22
2017-09-13T19:35:29.406Z,70.47
2017-09-13T19:37:56.937Z,70.22
2017-09-13T19:40:24.618Z,69.71
2017-09-13T19:42:52.152Z,69.80
2017-09-13T19:45:19.842Z,70.02
2017-09-13T19:47:47.385Z,70.42
2017-09-13T19:50:14.995Z,70.74
2017-09-13T19:52:42.516Z,70.61
2017-09-13T19:55:10.107Z,70.37
2017-09-13T19:57:37.627Z,70.34
2017-09-13T20:00:05.151Z,70.63
2017-09-13T20:02:32.826Z,70.17
2017-09-13T20:05:00.383Z,69.64
2017-09-13T20:07:27.899Z,68.74
2017-09-13T20:09:55.422Z,68.88
2017-09-13T20:12:22.958Z,68.82
2017-09-13T20:14:51.386Z,68.81
2017-09-13T20:17:18.930Z,69.06
2017-09-13T20:19:46.669Z,69.05
2017-09-13T20:22:14.206Z,68.26
2017-09-13T20:24:41.803Z,68.76
2017-09-13T20:27:09.330Z,68.04
2017-09-13T20:29:36.855Z,68.49
2017-09-13T20:32:04.357Z,68.34
2017-09-13T20:34:31.864Z,69.25
2017-09-13T20:36:59.431Z,68.68
2017-09-13T20:39:26.939Z,67.53
2017-09-13T20:41:54.484Z,67.25
2017-09-13T20:44:22.023Z,67.54
2017-09-13T20:46:49.540Z,66.94
2017-09-13T20:49:17.041Z,67.12
2017-09-13T20:51:44.577Z,67.16
2017-09-13T20:54:12.171Z,67.36
2017-09-13T20:56:39.700Z,67.89
2017-09-13T20:59:07.215Z,66.80
2017-09-13T21:01:34.739Z,66.82
2017-09-13T21:04:02.242Z,67.50
2017-09-13T21:06:29.748Z,66.38
2017-09-13T21:08:57.276Z,67.09
2017-09-13T21:11:24.790Z,66.82
2017-09-13T21:13:52.311Z,65.85
2017-09-13T21:16:19.864Z,66.05
2017-09-13T21:18:47.368Z,67.63
2017-09-13T21:21:14.879Z,67.01
2017-09-13T21:23:42.384Z,66.76
2017-09-13T21:26:09.957Z,67.76
2017-09-13T21:28:37.486Z,67.04
2017-09-13T21:31:05.016Z,66.88
2017-09-13T21:33:32.536Z,67.17
2017-09-13T21:36:00.057Z,66.59
2017-09-13T21:38:27.582Z,66.07
2017-09-13T21:40:55.100Z,66.52
2017-09-13T21:43:22.619Z,65.50
2017-09-13T21:45:50.121Z,64.92
2017-09-13T21:48:17.628Z,64.58
2017-09-13T21:50:45.158Z,64.03
2017-09-13T21:53:12.676Z,64.91
2017-09-13T21:55:40.208Z,65.36
2017-09-13T21:58:07.714Z,64.54
2017-09-13T22:00:35.219Z,65.57
2017-09-13T22:03:02.725Z,66.08
2017-09-13T22:05:30.226Z,65.87
2017-09-13T22:07:57.739Z,65.72
2017-09-13T22:10:25.245Z,66.30
2017-09-13T22:12:52.751Z,65.66
2017-09-13T22:15:20.247Z,66.41
2017-09-13T22:17:47.770Z,67.32
2017-09-13T22:20:15.353Z,67.12
2017-09-13T22:22:42.851Z,67.79
2017-09-13T22:25:10.370Z,66.61
2017-09-13T22:27:37.901Z,66.02
2017-09-13T22:30:05.422Z,67.57
2017-09-13T22:32:33.001Z,66.06
2017-09-13T22:35:00.512Z,66.01
2017-09-13T22:37:28.011Z,65.65
2017-09-13T22:39:55.537Z,65.34
2017-09-13T22:42:23.040Z,65.41
2017-09-13T22:44:50.546Z,65.16
2017-09-13T22:47:18.055Z,64.19
2017-09-13T22:49:45.589Z,63.65
2017-09-13T22:52:13.095Z,62.87
2017-09-13T22:54:40.610Z,62.12
2017-09-13T22:57:08.122Z,60.85
2017-09-13T22:59:35.652Z,60.15
2017-09-13T23:02:03.155Z,60.58
2017-09-13T23:04:30.675Z,60.73
2017-09-13T23:06:58.200Z,60.81
2017-09-13T23:09:31.493Z,60.22
2017-09-13T23:11:58.989Z,60.85
2017-09-13T23:14:26.515Z,61.05
2017-09-13T23:16:54.047Z,60.41
2017-09-13T23:19:21.574Z,59.85
2017-09-13T23:21:49.086Z,60.08
2017-09-13T23:24:16.596Z,59.84
2017-09-13T23:26:44.098Z,59.47
2017-09-13T23:29:11.608Z,60.18
2017-09-13T23:31:39.110Z,60.62
2017-09-13T23:34:06.616Z,59.93
2017-09-13T23:36:34.128Z,58.27
2017-09-13T23:39:01.640Z,58.65
2017-09-13T23:41:29.143Z,58.50
2017-09-13T23:43:56.647Z,58.29
2017-09-13T23:46:24.143Z,58.32
2017-09-13T23:48:51.655Z,58.61
2017-09-13T23:51:19.168Z,58.69
2017-09-13T23:53:46.694Z,57.90
2017-09-13T23:56:14.196Z,57.34
2017-09-13T23:58:41.711Z,57.80
